Time;durP1;ratioP1;P1;durP2;ratioP2;P2;SDS_P1;SDS_P2;PMS_P1;PMS_P2;Temp;Humidity;BMP_temperature;BMP_pressure;BME280_temperature;BME280_humidity;BME280_pressure;Samples;Min_cycle;Max_cycle;Signal;HPM_P1;HPM_P2
2021/05/08 00:01:35;;;;;;;5.85;1.80;;;7.80;86.20;;;;;;4974791;28;20046;-91
2021/05/08 00:04:01;;;;;;;4.47;1.80;;;7.80;86.30;;;;;;4975368;28;20051;-92
2021/05/08 00:06:26;;;;;;;5.18;2.17;;;7.70;86.40;;;;;;4975644;28;20053;-90
2021/05/08 00:08:52;;;;;;;4.57;2.00;;;7.70;86.60;;;;;;4974802;28;20125;-91
2021/05/08 00:11:19;;;;;;;4.53;1.75;;;7.70;86.40;;;;;;4975806;28;20491;-91
2021/05/08 00:13:45;;;;;;;4.60;1.90;;;7.60;86.30;;;;;;4975139;28;20614;-90
2021/05/08 00:16:10;;;;;;;5.75;1.95;;;7.60;86.80;;;;;;4974967;28;20134;-91
2021/05/08 00:18:36;;;;;;;7.18;1.88;;;7.60;86.70;;;;;;4975496;28;20051;-90
2021/05/08 00:21:02;;;;;;;4.22;1.63;;;7.50;86.30;;;;;;4975735;28;20082;-90
2021/05/08 00:23:28;;;;;;;3.78;1.80;;;7.50;86.60;;;;;;4974795;28;20058;-90
2021/05/08 00:25:54;;;;;;;6.10;1.90;;;7.50;86.50;;;;;;4974971;28;20047;-90
2021/05/08 00:28:20;;;;;;;5.35;2.10;;;7.40;86.50;;;;;;4975611;28;20407;-91
2021/05/08 00:30:45;;;;;;;5.38;1.80;;;7.40;86.70;;;;;;4974626;28;20047;-91
2021/05/08 00:33:31;;;;;;;5.22;2.00;;;7.40;87.00;;;;;;4974477;28;20124;-90
2021/05/08 00:35:57;;;;;;;6.43;1.90;;;7.30;86.70;;;;;;4974129;28;20051;-91
2021/05/08 00:38:23;;;;;;;5.18;1.88;;;7.30;86.70;;;;;;4974427;28;20388;-91
2021/05/08 00:40:48;;;;;;;5.50;1.80;;;7.30;86.80;;;;;;4974809;28;20051;-90
2021/05/08 00:43:18;;;;;;;4.30;1.73;;;7.30;86.80;;;;;;4974763;28;20050;-91
2021/05/08 00:45:44;;;;;;;6.25;2.00;;;7.20;86.90;;;;;;4974780;28;20043;-91
2021/05/08 00:48:11;;;;;;;5.75;1.90;;;7.20;86.80;;;;;;4975030;28;20062;-91
2021/05/08 00:50:37;;;;;;;5.15;2.03;;;7.10;86.90;;;;;;4974120;28;20051;-91
2021/05/08 00:53:06;;;;;;;5.43;2.17;;;7.10;87.00;;;;;;4975072;28;20051;-92
2021/05/08 00:55:33;;;;;;;5.47;2.00;;;7.10;87.60;;;;;;4974867;28;20043;-92
2021/05/08 00:58:00;;;;;;;4.68;1.95;;;7.10;87.40;;;;;;4974023;28;20145;-92
2021/05/08 01:00:28;;;;;;;6.10;2.40;;;7.00;87.40;;;;;;4974932;28;20050;-92
2021/05/08 01:02:54;;;;;;;5.35;2.17;;;7.00;87.50;;;;;;4974611;28;20136;-91
2021/05/08 01:05:21;;;;;;;6.75;2.22;;;7.00;87.80;;;;;;4974065;28;20049;-92
2021/05/08 01:07:47;;;;;;;6.72;2.30;;;6.90;87.60;;;;;;4974149;28;20051;-92
2021/05/08 01:10:15;;;;;;;5.35;2.08;;;6.90;87.70;;;;;;4974679;28;20049;-92
2021/05/08 01:12:42;;;;;;;6.95;2.20;;;6.90;87.80;;;;;;4974066;28;20046;-92
2021/05/08 01:15:10;;;;;;;4.28;1.90;;;6.90;88.00;;;;;;4974646;28;20097;-93
2021/05/08 01:17:37;;;;;;;5.47;2.00;;;6.80;87.80;;;;;;4974460;28;20081;-91
2021/05/08 01:20:09;;;;;;;5.72;2.17;;;6.80;87.80;;;;;;4973840;28;20575;-91
2021/05/08 01:22:35;;;;;;;5.32;2.35;;;6.80;88.10;;;;;;4974941;28;20074;-91
2021/05/08 01:25:03;;;;;;;5.20;2.15;;;6.70;87.80;;;;;;4974115;28;20162;-92
2021/05/08 01:27:29;;;;;;;6.47;2.08;;;6.70;88.00;;;;;;4973939;28;20097;-92
2021/05/08 01:29:55;;;;;;;6.20;2.30;;;6.70;88.00;;;;;;4974605;28;20062;-91
2021/05/08 01:32:20;;;;;;;6.60;2.10;;;6.70;88.00;;;;;;4974112;28;20113;-92
2021/05/08 01:34:47;;;;;;;5.25;2.22;;;6.60;87.80;;;;;;4974221;28;20101;-93
2021/05/08 01:37:13;;;;;;;4.97;2.40;;;6.60;87.80;;;;;;4974649;28;20046;-91
2021/05/08 01:39:38;;;;;;;5.47;2.35;;;6.60;87.80;;;;;;4974198;28;20061;-92
2021/05/08 01:42:04;;;;;;;6.93;2.47;;;6.60;87.90;;;;;;4973971;28;20130;-92
2021/05/08 01:44:30;;;;;;;7.57;2.72;;;6.50;88.00;;;;;;4974243;28;20082;-93
2021/05/08 01:46:56;;;;;;;6.65;2.95;;;6.50;88.20;;;;;;4973207;28;20057;-93
2021/05/08 01:49:22;;;;;;;6.35;2.28;;;6.40;88.20;;;;;;4974262;28;20129;-92
2021/05/08 01:51:47;;;;;;;7.70;2.58;;;6.40;87.90;;;;;;4973350;28;20134;-92
2021/05/08 01:54:15;;;;;;;8.82;3.10;;;6.40;87.70;;;;;;4973765;28;20058;-91
2021/05/08 01:56:41;;;;;;;8.73;3.05;;;6.40;88.00;;;;;;4973584;28;20133;-91
2021/05/08 01:59:07;;;;;;;9.50;3.63;;;6.40;87.90;;;;;;4954948;29;20055;-92
2021/05/08 02:01:33;;;;;;;9.57;3.22;;;6.30;87.90;;;;;;4954234;28;20044;-92
2021/05/08 02:03:58;;;;;;;10.35;3.42;;;6.30;88.80;;;;;;4971945;28;20558;-91
2021/05/08 02:06:24;;;;;;;7.68;3.22;;;6.30;88.40;;;;;;4973659;28;20051;-92
2021/05/08 02:08:50;;;;;;;11.18;3.92;;;6.20;88.10;;;;;;4973241;28;20514;-94
2021/05/08 02:11:15;;;;;;;9.00;3.40;;;6.20;88.20;;;;;;4973737;28;20058;-92
2021/05/08 02:13:42;;;;;;;10.55;3.50;;;6.20;88.30;;;;;;4973739;28;20058;-92
2021/05/08 02:16:08;;;;;;;8.60;3.90;;;6.10;88.00;;;;;;4973552;28;20392;-92
2021/05/08 02:18:33;;;;;;;8.70;3.70;;;6.20;88.20;;;;;;4974120;28;20081;-93
2021/05/08 02:20:59;;;;;;;9.07;3.85;;;6.10;88.50;;;;;;4973639;28;20464;-93
2021/05/08 02:23:25;;;;;;;9.15;3.40;;;6.10;88.70;;;;;;4973456;28;20130;-92
2021/05/08 02:25:51;;;;;;;10.88;3.15;;;6.10;88.70;;;;;;4973940;28;20474;-92
2021/05/08 02:28:16;;;;;;;9.32;3.60;;;6.10;88.40;;;;;;4973744;28;20418;-92
2021/05/08 02:30:43;;;;;;;9.68;3.38;;;6.00;88.40;;;;;;4973608;28;20050;-92
2021/05/08 02:33:09;;;;;;;7.10;3.33;;;6.00;88.60;;;;;;4974139;28;20051;-93
2021/05/08 02:35:37;;;;;;;7.95;3.33;;;6.00;88.40;;;;;;4973388;28;20122;-92
2021/05/08 02:38:04;;;;;;;7.28;3.30;;;6.00;88.80;;;;;;4974041;28;20055;-92
2021/05/08 02:40:33;;;;;;;6.90;3.38;;;5.90;88.90;;;;;;4974207;28;20129;-93
2021/05/08 02:43:01;;;;;;;7.65;3.25;;;5.90;89.10;;;;;;4972659;28;20054;-90
2021/05/08 02:45:27;;;;;;;8.70;3.85;;;5.90;88.90;;;;;;4971289;28;20109;-90
2021/05/08 02:47:52;;;;;;;6.40;3.13;;;5.90;89.00;;;;;;4969535;28;20054;-89
2021/05/08 02:50:20;;;;;;;8.50;3.40;;;5.90;88.50;;;;;;4968911;28;20053;-90
2021/05/08 02:52:46;;;;;;;7.75;3.20;;;5.80;88.60;;;;;;4970976;28;20404;-90
2021/05/08 02:55:13;;;;;;;7.38;3.45;;;5.80;88.80;;;;;;4957106;28;20055;-90
2021/05/08 02:57:39;;;;;;;8.23;3.42;;;5.80;89.10;;;;;;4964658;28;20470;-90
2021/05/08 03:00:07;;;;;;;7.15;3.50;;;5.80;89.30;;;;;;4974624;28;20476;-92
2021/05/08 03:02:32;;;;;;;7.05;2.80;;;5.80;89.60;;;;;;4977121;28;20053;-92
2021/05/08 03:04:58;;;;;;;7.18;3.70;;;5.70;89.60;;;;;;4976264;28;20047;-91
2021/05/08 03:07:24;;;;;;;8.15;3.70;;;5.70;89.50;;;;;;4959279;28;20051;-91
2021/05/08 03:09:50;;;;;;;6.60;3.10;;;5.70;89.70;;;;;;4957241;28;20051;-91
2021/05/08 03:12:16;;;;;;;8.10;2.97;;;5.70;89.40;;;;;;4957019;28;20142;-91
2021/05/08 03:14:41;;;;;;;7.20;3.28;;;5.60;89.00;;;;;;4972229;28;20047;-92
2021/05/08 03:17:07;;;;;;;6.45;3.03;;;5.60;89.00;;;;;;4958406;28;20443;-90
2021/05/08 03:19:33;;;;;;;8.75;3.22;;;5.60;88.70;;;;;;4968297;28;20050;-91
2021/05/08 03:21:58;;;;;;;5.85;3.22;;;5.60;88.80;;;;;;4974538;28;20074;-91
2021/05/08 03:24:24;;;;;;;7.03;3.22;;;5.60;89.40;;;;;;4956728;28;20122;-91
2021/05/08 03:26:50;;;;;;;5.65;3.05;;;5.60;89.70;;;;;;4956889;28;20055;-91
2021/05/08 03:29:15;;;;;;;7.68;3.28;;;5.60;89.70;;;;;;4967213;28;20098;-90
2021/05/08 03:31:41;;;;;;;7.65;3.63;;;5.50;89.70;;;;;;4975652;28;20054;-91
2021/05/08 03:34:07;;;;;;;6.35;3.20;;;5.50;89.80;;;;;;4975942;28;20054;-92
2021/05/08 03:36:34;;;;;;;5.50;3.20;;;5.50;89.70;;;;;;4976105;28;20129;-91
2021/05/08 03:39:00;;;;;;;6.97;3.10;;;5.50;89.50;;;;;;4975635;28;20138;-91
2021/05/08 03:41:26;;;;;;;4.80;2.72;;;5.50;89.30;;;;;;4976010;28;20122;-91
2021/05/08 03:43:52;;;;;;;5.68;3.05;;;5.40;88.90;;;;;;4975717;28;20051;-91
2021/05/08 03:46:17;;;;;;;7.15;3.90;;;5.40;88.60;;;;;;4975732;28;20043;-91
2021/05/08 03:48:44;;;;;;;5.75;3.28;;;5.40;88.60;;;;;;4975810;28;20142;-92
2021/05/08 03:51:10;;;;;;;6.72;3.50;;;5.40;88.70;;;;;;4975609;28;20106;-91
2021/05/08 03:53:35;;;;;;;7.07;3.47;;;5.40;88.50;;;;;;4969267;28;20072;-91
2021/05/08 03:56:02;;;;;;;7.40;3.40;;;5.30;88.60;;;;;;4970157;28;20106;-91
2021/05/08 03:58:30;;;;;;;7.53;3.58;;;5.30;88.10;;;;;;4974717;28;20050;-92
2021/05/08 04:00:57;;;;;;;6.82;3.40;;;5.30;88.30;;;;;;4975138;28;20848;-91
2021/05/08 04:03:23;;;;;;;6.70;3.60;;;5.30;87.90;;;;;;4975661;28;20062;-91
2021/05/08 04:05:54;;;;;;;6.82;3.65;;;5.20;87.80;;;;;;4974043;28;20102;-91
2021/05/08 04:08:20;;;;;;;6.25;3.47;;;5.20;88.30;;;;;;4975090;28;20059;-90
2021/05/08 04:10:49;;;;;;;8.07;4.72;;;5.20;88.50;;;;;;4974854;28;20046;-92
2021/05/08 04:13:15;;;;;;;7.20;4.28;;;5.20;88.20;;;;;;4974903;28;20099;-91
2021/05/08 04:15:42;;;;;;;7.85;4.18;;;5.10;87.80;;;;;;4974540;28;20047;-91
2021/05/08 04:18:07;;;;;;;8.15;4.40;;;5.10;88.00;;;;;;4974463;28;20098;-91
2021/05/08 04:20:34;;;;;;;6.93;4.88;;;5.10;88.20;;;;;;4975088;28;20054;-90
2021/05/08 04:22:59;;;;;;;7.28;4.45;;;5.10;88.90;;;;;;4974656;28;20129;-92
2021/05/08 04:25:28;;;;;;;8.38;4.57;;;5.10;89.60;;;;;;4975412;28;20053;-93
2021/05/08 04:27:54;;;;;;;8.15;4.68;;;5.10;89.70;;;;;;4974788;28;20054;-92
2021/05/08 04:30:22;;;;;;;6.97;4.32;;;5.10;89.80;;;;;;4975292;28;20047;-91
2021/05/08 04:32:48;;;;;;;8.18;4.90;;;5.10;90.00;;;;;;4975164;28;20042;-91
2021/05/08 04:35:16;;;;;;;8.30;5.20;;;5.10;90.00;;;;;;4974794;28;20061;-92
2021/05/08 04:37:43;;;;;;;7.57;4.97;;;5.10;90.10;;;;;;4975079;28;20101;-92
2021/05/08 04:40:10;;;;;;;9.05;4.93;;;5.10;90.10;;;;;;4975277;28;20051;-90
2021/05/08 04:42:36;;;;;;;8.18;5.00;;;5.10;90.00;;;;;;4974289;28;20051;-89
2021/05/08 04:45:02;;;;;;;8.20;5.53;;;5.10;89.60;;;;;;4975244;28;20061;-91
2021/05/08 04:47:28;;;;;;;8.93;5.03;;;5.10;89.60;;;;;;4974470;28;20051;-90
2021/05/08 04:49:57;;;;;;;8.70;5.28;;;5.20;89.20;;;;;;4974179;28;20054;-92
2021/05/08 04:52:25;;;;;;;10.55;5.50;;;5.10;89.50;;;;;;4974736;28;20047;-91
2021/05/08 04:54:51;;;;;;;8.05;5.43;;;5.10;89.80;;;;;;4974430;28;20089;-92
2021/05/08 04:57:18;;;;;;;8.38;5.28;;;5.20;89.70;;;;;;4974073;28;20495;-91
2021/05/08 04:59:44;;;;;;;9.05;6.53;;;5.20;89.40;;;;;;4974394;28;20098;-91
2021/05/08 05:02:10;;;;;;;9.15;5.60;;;5.20;89.20;;;;;;4974394;28;20074;-92
2021/05/08 05:04:36;;;;;;;8.05;5.18;;;5.20;89.40;;;;;;4974003;28;20482;-91
2021/05/08 05:07:02;;;;;;;10.65;6.10;;;5.10;89.20;;;;;;4974522;28;20046;-92
2021/05/08 05:09:33;;;;;;;8.88;5.65;;;5.10;89.30;;;;;;4974784;28;20442;-91
2021/05/08 05:12:02;;;;;;;9.25;5.85;;;5.10;89.60;;;;;;4974330;28;20057;-91
2021/05/08 05:14:27;;;;;;;11.57;7.47;;;5.10;89.10;;;;;;4974669;28;20051;-91
2021/05/08 05:16:53;;;;;;;8.85;5.70;;;5.10;88.90;;;;;;4973973;28;20486;-90
2021/05/08 05:19:19;;;;;;;8.60;5.75;;;5.10;88.80;;;;;;4975034;28;20054;-91
2021/05/08 05:21:44;;;;;;;9.70;5.95;;;5.10;89.00;;;;;;4973713;28;20085;-92
2021/05/08 05:24:11;;;;;;;9.73;6.63;;;5.10;89.10;;;;;;4973390;28;20514;-90
2021/05/08 05:26:38;;;;;;;12.57;7.28;;;5.10;89.30;;;;;;4974034;28;20074;-90
2021/05/08 05:29:10;;;;;;;13.20;7.68;;;5.10;89.00;;;;;;4974735;28;20509;-90
2021/05/08 05:31:40;;;;;;;9.55;6.80;;;5.20;89.10;;;;;;4972967;28;20067;-90
2021/05/08 05:34:05;;;;;;;11.38;7.18;;;5.20;89.30;;;;;;4974147;28;20051;-91
2021/05/08 05:36:35;;;;;;;13.15;7.50;;;5.20;89.20;;;;;;4974240;28;20047;-89
2021/05/08 05:39:01;;;;;;;10.90;7.38;;;5.20;89.20;;;;;;4973235;28;20051;-88
2021/05/08 05:41:27;;;;;;;11.32;7.00;;;5.20;89.20;;;;;;4973581;28;20042;-89
2021/05/08 05:43:54;;;;;;;9.85;7.15;;;5.20;89.10;;;;;;4973302;28;20051;-89
2021/05/08 05:46:21;;;;;;;11.25;7.75;;;5.20;89.40;;;;;;4963223;28;20130;-88
2021/05/08 05:48:46;;;;;;;9.82;6.30;;;5.20;89.50;;;;;;4957669;28;20133;-89
2021/05/08 05:51:14;;;;;;;10.88;7.00;;;5.30;89.40;;;;;;4973744;28;20402;-90
2021/05/08 05:53:39;;;;;;;9.80;7.32;;;5.30;89.60;;;;;;4958433;28;20136;-88
2021/05/08 05:56:05;;;;;;;13.23;8.38;;;5.30;89.70;;;;;;4973307;28;20075;-88
2021/05/08 05:58:35;;;;;;;9.93;6.60;;;5.40;89.70;;;;;;4973555;28;20042;-89
2021/05/08 06:01:01;;;;;;;11.50;7.50;;;5.40;89.80;;;;;;4972129;28;20572;-89
2021/05/08 06:03:27;;;;;;;13.20;8.80;;;5.40;89.90;;;;;;4972944;28;20062;-89
2021/05/08 06:05:52;;;;;;;10.57;7.38;;;5.50;89.90;;;;;;4964561;28;20141;-90
2021/05/08 06:08:18;;;;;;;12.30;7.40;;;5.50;89.90;;;;;;4971821;28;20054;-89
2021/05/08 06:10:44;;;;;;;13.95;8.10;;;5.60;89.70;;;;;;4969905;28;20046;-89
2021/05/08 06:13:10;;;;;;;12.80;7.13;;;5.70;89.60;;;;;;4963982;28;20469;-86
2021/05/08 06:15:36;;;;;;;11.65;7.32;;;5.70;89.30;;;;;;4973249;28;20042;-86
2021/05/08 06:18:02;;;;;;;11.85;7.20;;;5.80;89.10;;;;;;4973195;28;20047;-86
2021/05/08 06:20:28;;;;;;;12.45;8.05;;;5.90;88.90;;;;;;4972418;28;20174;-87
2021/05/08 06:22:54;;;;;;;15.07;8.43;;;6.00;88.90;;;;;;4973035;28;20050;-88
2021/05/08 06:25:21;;;;;;;11.68;7.45;;;6.10;89.00;;;;;;4973134;28;20982;-87
2021/05/08 06:27:46;;;;;;;12.20;8.55;;;6.20;89.40;;;;;;4972199;28;20043;-88
2021/05/08 06:30:12;;;;;;;13.73;7.55;;;6.30;88.60;;;;;;4971373;28;20053;-90
2021/05/08 06:32:38;;;;;;;11.07;7.80;;;6.40;88.40;;;;;;4972370;28;21058;-87
2021/05/08 06:35:04;;;;;;;13.40;7.82;;;6.50;88.40;;;;;;4966751;28;20138;-87
2021/05/08 06:37:30;;;;;;;13.32;8.80;;;6.60;88.30;;;;;;4971902;28;20047;-89
2021/05/08 06:39:56;;;;;;;14.10;8.32;;;6.60;88.10;;;;;;4977209;28;20113;-89
2021/05/08 06:42:22;;;;;;;13.13;7.97;;;6.70;88.00;;;;;;4976368;28;20047;-87
2021/05/08 06:44:48;;;;;;;13.27;8.57;;;6.90;87.90;;;;;;4978609;28;20081;-92
2021/05/08 06:47:15;;;;;;;15.15;8.73;;;7.00;87.70;;;;;;4981328;28;20053;-91
2021/05/08 06:49:46;;;;;;;15.23;8.93;;;7.10;87.40;;;;;;4988145;28;20050;-94
2021/05/08 06:52:14;;;;;;;14.32;7.93;;;7.10;86.80;;;;;;4980550;28;20051;-94
2021/05/08 06:54:39;;;;;;;13.13;8.45;;;7.30;86.50;;;;;;4976812;28;20146;-92
2021/05/08 06:57:05;;;;;;;11.57;7.88;;;7.40;85.90;;;;;;4965305;28;20158;-95
2021/05/08 06:59:33;;;;;;;11.48;7.72;;;7.50;85.80;;;;;;4977613;28;20165;-93
2021/05/08 07:01:58;;;;;;;11.27;7.38;;;7.60;85.40;;;;;;4977854;28;20075;-93
2021/05/08 07:04:24;;;;;;;12.73;7.68;;;7.70;85.20;;;;;;4977315;28;20074;-92
2021/05/08 07:06:50;;;;;;;14.20;8.00;;;7.80;85.20;;;;;;4977109;28;20051;-94
2021/05/08 07:09:16;;;;;;;12.90;8.27;;;7.80;85.00;;;;;;4977189;28;20057;-88
2021/05/08 07:11:41;;;;;;;11.55;8.00;;;7.90;84.80;;;;;;4975306;28;20059;-83
2021/05/08 07:14:07;;;;;;;11.80;8.02;;;8.00;84.50;;;;;;4976618;28;20058;-87
2021/05/08 07:16:33;;;;;;;12.05;7.78;;;8.10;84.00;;;;;;4975690;28;20043;-86
2021/05/08 07:18:58;;;;;;;13.25;8.05;;;8.20;83.40;;;;;;4971026;28;20051;-85
2021/05/08 07:21:24;;;;;;;11.10;7.63;;;8.20;83.20;;;;;;4976652;28;20042;-86
2021/05/08 07:23:50;;;;;;;12.18;7.70;;;8.30;83.10;;;;;;4974365;28;20145;-86
2021/05/08 07:26:16;;;;;;;12.57;7.78;;;8.40;82.80;;;;;;4973408;28;20050;-85
2021/05/08 07:28:42;;;;;;;11.52;8.50;;;8.50;82.40;;;;;;4975840;28;20051;-85
2021/05/08 07:31:08;;;;;;;12.27;8.57;;;8.50;82.00;;;;;;4975545;28;20061;-86
2021/05/08 07:33:33;;;;;;;12.48;9.38;;;8.60;81.60;;;;;;4971427;28;20139;-85
2021/05/08 07:35:59;;;;;;;12.88;8.45;;;8.70;81.70;;;;;;4975846;28;20073;-86
2021/05/08 07:38:25;;;;;;;12.98;7.88;;;8.80;81.30;;;;;;4967826;28;20051;-88
2021/05/08 07:40:51;;;;;;;11.93;8.25;;;8.80;80.40;;;;;;4961192;28;20531;-88
2021/05/08 07:43:19;;;;;;;14.18;8.30;;;8.90;79.90;;;;;;4968404;28;20105;-87
2021/05/08 07:45:46;;;;;;;12.52;8.65;;;8.90;80.10;;;;;;4959080;28;20085;-84
2021/05/08 07:48:12;;;;;;;12.23;8.60;;;9.00;79.80;;;;;;4972079;28;20058;-83
2021/05/08 07:50:39;;;;;;;13.45;7.93;;;9.10;79.30;;;;;;4975843;28;20055;-84
2021/05/08 07:53:05;;;;;;;14.63;8.60;;;9.10;78.80;;;;;;4975312;28;20046;-84
2021/05/08 07:55:31;;;;;;;14.15;7.60;;;9.20;78.60;;;;;;4975907;28;20057;-84
2021/05/08 07:57:56;;;;;;;14.77;7.45;;;9.30;78.10;;;;;;4975845;28;20057;-83
2021/05/08 08:00:23;;;;;;;11.20;7.90;;;9.40;77.50;;;;;;4975156;28;20051;-83
2021/05/08 08:03:11;;;;;;;13.35;7.30;;;9.40;77.20;;;;;;4975167;28;20383;-83
2021/05/08 08:05:36;;;;;;;12.70;7.57;;;9.40;77.00;;;;;;4975688;28;20051;-83
2021/05/08 08:08:02;;;;;;;14.98;8.32;;;9.50;76.80;;;;;;4974910;28;20098;-83
2021/05/08 08:10:28;;;;;;;12.98;7.82;;;9.50;76.40;;;;;;4975846;28;20050;-84
2021/05/08 08:12:53;;;;;;;12.50;7.68;;;9.60;76.10;;;;;;4974782;28;20546;-84
2021/05/08 08:15:22;;;;;;;13.13;7.70;;;9.60;75.10;;;;;;4972347;28;20071;-85
2021/05/08 08:17:47;;;;;;;11.85;7.88;;;9.70;75.20;;;;;;4971837;28;20059;-88
2021/05/08 08:20:14;;;;;;;14.75;8.05;;;9.70;75.10;;;;;;4967287;28;20130;-84
2021/05/08 08:22:42;;;;;;;12.52;7.90;;;9.70;74.60;;;;;;4972866;28;20054;-84
2021/05/08 08:25:10;;;;;;;13.40;7.75;;;9.80;74.10;;;;;;4973940;28;20062;-85
2021/05/08 08:27:36;;;;;;;12.35;7.85;;;9.80;73.40;;;;;;4974428;28;20392;-84
2021/05/08 08:30:07;;;;;;;14.90;8.40;;;9.90;73.50;;;;;;4975377;28;20495;-84
2021/05/08 08:32:33;;;;;;;17.60;8.82;;;10.00;73.30;;;;;;4975401;28;20046;-84
2021/05/08 08:34:58;;;;;;;16.08;8.18;;;10.00;73.30;;;;;;4973821;28;20108;-84
2021/05/08 08:37:24;;;;;;;13.38;8.35;;;10.10;73.10;;;;;;4975033;28;20046;-84
2021/05/08 08:39:50;;;;;;;17.10;8.90;;;10.10;72.90;;;;;;4975018;28;20186;-84
2021/05/08 08:42:17;;;;;;;16.15;9.32;;;10.10;72.40;;;;;;4974331;28;20054;-84
2021/05/08 08:44:43;;;;;;;14.60;8.77;;;10.20;72.60;;;;;;4974737;28;20054;-84
2021/05/08 08:47:30;;;;;;;12.60;7.43;;;10.20;72.80;;;;;;4975106;28;20047;-85
2021/05/08 08:50:01;;;;;;;13.52;8.35;;;10.20;72.50;;;;;;4973968;28;20061;-84
2021/05/08 08:52:28;;;;;;;13.65;8.15;;;10.30;71.50;;;;;;4975163;28;20126;-83
2021/05/08 08:54:55;;;;;;;15.63;8.60;;;10.40;70.90;;;;;;4974496;28;20095;-83
2021/05/08 08:57:26;;;;;;;16.23;8.65;;;10.40;70.60;;;;;;4974223;28;20058;-85
2021/05/08 08:59:53;;;;;;;12.88;8.85;;;10.50;70.10;;;;;;4974575;28;20454;-85
2021/05/08 09:02:24;;;;;;;15.55;9.00;;;10.60;69.80;;;;;;4973828;28;20074;-85
2021/05/08 09:04:49;;;;;;;16.63;8.90;;;10.60;69.30;;;;;;4974559;28;20111;-84
2021/05/08 09:07:16;;;;;;;14.15;8.85;;;10.70;69.10;;;;;;4974804;28;20047;-85
2021/05/08 09:09:43;;;;;;;17.27;9.13;;;10.70;69.10;;;;;;4973622;28;20054;-84
2021/05/08 09:12:13;;;;;;;14.38;8.65;;;10.80;68.30;;;;;;4974330;28;20407;-85
2021/05/08 09:14:39;;;;;;;15.38;9.07;;;10.90;68.00;;;;;;4974019;28;20065;-86
2021/05/08 09:17:09;;;;;;;16.95;9.52;;;11.00;68.40;;;;;;4973711;28;20055;-85
2021/05/08 09:19:37;;;;;;;16.08;9.55;;;11.00;68.00;;;;;;4974784;28;20050;-84
2021/05/08 09:22:21;;;;;;;16.30;10.15;;;11.00;68.00;;;;;;4974363;28;20483;-85
2021/05/08 09:25:14;;;;;;;13.20;8.90;;;11.10;67.40;;;;;;4973346;28;20058;-84
2021/05/08 09:27:48;;;;;;;15.27;9.10;;;11.10;67.40;;;;;;4974299;28;20113;-84
2021/05/08 09:30:21;;;;;;;15.73;9.85;;;11.20;67.50;;;;;;4973725;28;20047;-85
2021/05/08 09:32:58;;;;;;;17.75;10.30;;;11.20;67.20;;;;;;4973989;28;20075;-85
2021/05/08 09:35:35;;;;;;;19.70;10.07;;;11.30;67.50;;;;;;4971876;28;20077;-94
2021/05/08 09:38:10;;;;;;;13.68;9.13;;;11.30;68.10;;;;;;4970577;28;20117;-92
2021/05/08 09:40:37;;;;;;;13.32;8.85;;;11.40;67.20;;;;;;4977539;28;20110;-93
2021/05/08 09:43:12;;;;;;;16.02;9.20;;;11.40;67.10;;;;;;4976425;28;20066;-96
2021/05/08 09:45:40;;;;;;;15.85;9.40;;;11.40;67.30;;;;;;4976172;28;20113;-94
2021/05/08 09:48:17;;;;;;;15.90;10.07;;;11.50;67.20;;;;;;4975253;28;20042;-92
2021/05/08 09:50:43;;;;;;;14.75;9.77;;;11.50;66.60;;;;;;4974139;28;20046;-89
2021/05/08 09:53:08;;;;;;;13.88;9.13;;;11.50;66.50;;;;;;4973487;28;20050;-88
2021/05/08 09:55:35;;;;;;;14.90;9.52;;;11.60;66.00;;;;;;4974196;28;20050;-88
2021/05/08 09:58:07;;;;;;;15.18;9.95;;;11.60;66.60;;;;;;4964990;28;20059;-94
2021/05/08 10:00:39;;;;;;;14.20;10.10;;;11.60;67.20;;;;;;4960867;28;20146;-92
2021/05/08 10:03:13;;;;;;;15.07;10.32;;;11.60;67.50;;;;;;4977502;28;20050;-95
2021/05/08 10:05:48;;;;;;;15.90;10.63;;;11.60;66.90;;;;;;4976404;28;20054;-93
2021/05/08 10:08:14;;;;;;;15.93;10.75;;;11.60;67.30;;;;;;4978471;28;20055;-94
2021/05/08 10:10:40;;;;;;;17.27;10.48;;;11.60;67.60;;;;;;4977334;28;20550;-92
2021/05/08 10:13:08;;;;;;;16.88;9.63;;;11.70;67.30;;;;;;4969594;28;20406;-94
2021/05/08 10:15:35;;;;;;;13.32;10.30;;;11.70;66.80;;;;;;4976081;28;20411;-91
2021/05/08 10:18:05;;;;;;;15.68;10.30;;;11.70;66.40;;;;;;4977445;28;20047;-91
2021/05/08 10:20:31;;;;;;;14.80;10.50;;;11.70;66.30;;;;;;4962652;28;20067;-92
2021/05/08 10:22:59;;;;;;;16.05;10.68;;;11.80;66.90;;;;;;4970297;28;20521;-92
2021/05/08 10:25:26;;;;;;;19.73;10.48;;;11.90;67.20;;;;;;4966675;28;20051;-92
2021/05/08 10:27:52;;;;;;;16.23;10.80;;;11.90;66.70;;;;;;4958094;28;20051;-92
2021/05/08 10:30:39;;;;;;;15.45;10.68;;;12.00;67.30;;;;;;4964252;28;20057;-91
2021/05/08 10:33:12;;;;;;;15.85;9.85;;;12.10;67.30;;;;;;4977275;28;20051;-90
2021/05/08 10:35:43;;;;;;;13.27;9.67;;;12.10;66.30;;;;;;4977999;28;20138;-93
2021/05/08 10:38:23;;;;;;;16.60;9.80;;;12.20;66.80;;;;;;4977932;28;20047;-89
2021/05/08 10:41:10;;;;;;;15.77;9.75;;;12.20;66.30;;;;;;4977533;28;20086;-92
2021/05/08 10:43:46;;;;;;;15.55;9.75;;;12.30;65.40;;;;;;4977481;28;20070;-93
2021/05/08 10:46:14;;;;;;;14.40;9.25;;;12.40;66.80;;;;;;4978030;28;20053;-94
2021/05/08 10:49:09;;;;;;;16.50;9.10;;;12.40;67.00;;;;;;4975977;28;20081;-92
2021/05/08 10:51:54;;;;;;;15.25;8.82;;;12.50;66.30;;;;;;4977244;28;20414;-90
2021/05/08 10:54:53;;;;;;;13.55;8.98;;;12.60;65.30;;;;;;4976924;28;20063;-89
2021/05/08 10:57:27;;;;;;;13.70;8.60;;;12.70;64.60;;;;;;4977009;28;20043;-90
2021/05/08 11:00:04;;;;;;;12.45;8.35;;;12.70;65.40;;;;;;4976668;28;20439;-91
2021/05/08 11:02:45;;;;;;;16.15;8.90;;;12.80;65.40;;;;;;4962307;28;20070;-89
2021/05/08 11:05:32;;;;;;;13.10;8.70;;;12.90;65.70;;;;;;4967886;28;20400;-88
2021/05/08 11:07:59;;;;;;;11.98;8.52;;;12.90;64.70;;;;;;4959330;28;20075;-88
2021/05/08 11:10:34;;;;;;;16.83;8.65;;;13.00;65.30;;;;;;4978843;28;20078;-92
2021/05/08 11:13:15;;;;;;;13.07;8.20;;;13.10;64.80;;;;;;4963512;28;20130;-88
2021/05/08 11:15:53;;;;;;;13.77;8.30;;;13.10;64.70;;;;;;4966320;28;20410;-87
2021/05/08 11:18:43;;;;;;;10.23;7.40;;;13.10;64.70;;;;;;4972100;28;20066;-88
2021/05/08 11:21:12;;;;;;;12.40;8.07;;;13.20;64.40;;;;;;4959547;28;20117;-88
2021/05/08 11:23:43;;;;;;;11.20;7.22;;;13.30;65.70;;;;;;4971316;28;20129;-87
2021/05/08 11:26:31;;;;;;;15.35;7.63;;;13.30;65.90;;;;;;4974468;28;20039;-89
2021/05/08 11:29:06;;;;;;;15.02;7.30;;;13.30;64.70;;;;;;4971647;28;20058;-89
2021/05/08 11:31:38;;;;;;;10.45;6.70;;;13.30;64.70;;;;;;4973613;28;20097;-90
2021/05/08 11:34:12;;;;;;;12.63;6.97;;;13.40;63.80;;;;;;4974919;28;20561;-88
2021/05/08 11:36:47;;;;;;;11.07;6.00;;;13.40;63.80;;;;;;4963228;28;20042;-90
2021/05/08 11:39:14;;;;;;;13.15;6.22;;;13.30;63.60;;;;;;4972949;28;20039;-90
2021/05/08 11:41:41;;;;;;;10.25;6.40;;;13.40;64.30;;;;;;4975042;28;20101;-89
2021/05/08 11:44:07;;;;;;;11.52;5.25;;;13.40;64.30;;;;;;4968268;28;20051;-88
2021/05/08 11:46:34;;;;;;;10.02;4.85;;;13.40;62.70;;;;;;4971304;28;20050;-88
2021/05/08 11:49:01;;;;;;;9.32;5.03;;;13.30;62.00;;;;;;4971478;28;20050;-88
2021/05/08 11:51:27;;;;;;;8.65;4.82;;;13.40;61.90;;;;;;4974087;28;20484;-88
2021/05/08 11:54:10;;;;;;;9.23;5.43;;;13.40;61.30;;;;;;4962966;28;20061;-89
2021/05/08 11:56:36;;;;;;;14.30;5.20;;;13.40;61.20;;;;;;4956699;28;20055;-90
2021/05/08 11:59:03;;;;;;;13.95;5.47;;;13.40;61.30;;;;;;4956115;28;20059;-89
2021/05/08 12:01:30;;;;;;;11.23;5.18;;;13.40;61.60;;;;;;4956415;28;20134;-87
2021/05/08 12:03:57;;;;;;;7.53;4.32;;;13.40;62.00;;;;;;4962856;28;20406;-89
2021/05/08 12:06:24;;;;;;;8.40;4.60;;;13.40;61.10;;;;;;4976153;28;20050;-88
2021/05/08 12:08:51;;;;;;;10.00;4.55;;;13.40;61.30;;;;;;4975427;28;20063;-89
2021/05/08 12:11:18;;;;;;;7.63;4.10;;;13.30;61.40;;;;;;4972968;28;20057;-90
2021/05/08 12:13:43;;;;;;;8.25;3.78;;;13.30;61.60;;;;;;4974736;28;20523;-89
2021/05/08 12:16:11;;;;;;;9.48;4.35;;;13.20;62.40;;;;;;4957682;28;20043;-89
2021/05/08 12:18:38;;;;;;;8.48;4.70;;;13.20;63.30;;;;;;4956120;28;20082;-88
2021/05/08 12:21:06;;;;;;;8.55;4.22;;;13.20;64.70;;;;;;4966344;28;20043;-89
2021/05/08 12:23:34;;;;;;;9.98;4.47;;;13.20;64.50;;;;;;4975536;28;20228;-88
2021/05/08 12:26:09;;;;;;;7.18;4.38;;;13.20;65.00;;;;;;4974989;28;20491;-89
2021/05/08 12:28:45;;;;;;;7.95;4.30;;;13.20;65.30;;;;;;4971899;28;20051;-89
2021/05/08 12:31:19;;;;;;;7.65;3.80;;;13.10;65.90;;;;;;4956059;28;20545;-89
2021/05/08 12:33:45;;;;;;;9.13;4.03;;;13.10;66.10;;;;;;4954471;28;20106;-90
2021/05/08 12:36:22;;;;;;;7.45;3.70;;;13.10;66.40;;;;;;4956026;28;20051;-89
2021/05/08 12:38:49;;;;;;;7.10;4.18;;;13.10;66.60;;;;;;4956292;28;20059;-91
2021/05/08 12:41:35;;;;;;;7.35;4.30;;;13.10;67.80;;;;;;4955515;28;20555;-87
2021/05/08 12:44:09;;;;;;;8.77;4.03;;;13.10;67.80;;;;;;4958212;28;20194;-89
2021/05/08 12:46:59;;;;;;;8.82;4.30;;;13.10;69.20;;;;;;4966990;28;20050;-89
2021/05/08 12:49:27;;;;;;;6.32;4.00;;;13.10;68.40;;;;;;4970286;28;20175;-93
2021/05/08 12:51:53;;;;;;;7.47;3.97;;;13.10;69.10;;;;;;4969939;28;20043;-92
2021/05/08 12:54:21;;;;;;;6.45;4.20;;;13.10;69.80;;;;;;4973863;28;20042;-91